createdAt,value
2023-03-24T00:00:24.153Z,16.50
2023-03-24T00:02:51.687Z,16.50
2023-03-24T00:05:21.465Z,16.50
2023-03-24T00:10:20.616Z,16.50
2023-03-24T00:12:48.597Z,16.60
2023-03-24T00:15:19.562Z,16.70
2023-03-24T00:17:50.367Z,16.60
2023-03-24T00:20:19.955Z,16.70
2023-03-24T00:22:50.915Z,16.60
2023-03-24T00:25:19.993Z,16.60
2023-03-24T00:27:49.023Z,16.60
2023-03-24T00:30:17.745Z,16.60
2023-03-24T00:32:45.228Z,16.50
2023-03-24T00:35:16.446Z,16.50
2023-03-24T00:37:44.707Z,16.60
2023-03-24T00:40:16.574Z,16.50
2023-03-24T00:42:45.961Z,16.50
2023-03-24T00:45:16.496Z,16.40
2023-03-24T00:47:44.888Z,16.30
2023-03-24T00:50:16.040Z,16.30
2023-03-24T00:52:48.142Z,16.30
2023-03-24T00:55:16.251Z,16.20
2023-03-24T00:57:51.678Z,16.30
2023-03-24T01:00:21.671Z,16.30
2023-03-24T01:02:58.853Z,16.20
2023-03-24T01:05:29.720Z,16.20
2023-03-24T01:07:58.405Z,16.20
2023-03-24T01:10:26.901Z,16.20
2023-03-24T01:12:56.960Z,16.10
2023-03-24T01:15:26.437Z,16.10
2023-03-24T01:17:54.417Z,16.20
2023-03-24T01:20:23.235Z,16.20
2023-03-24T01:22:50.975Z,16.20
2023-03-24T01:25:21.275Z,16.10
2023-03-24T01:27:49.646Z,16.10
2023-03-24T01:30:20.571Z,16.00
2023-03-24T01:32:47.425Z,16.00
2023-03-24T01:35:14.404Z,16.10
2023-03-24T01:37:41.323Z,16.10
2023-03-24T01:40:11.502Z,16.10
2023-03-24T01:42:39.568Z,16.10
2023-03-24T01:45:40.495Z,16.10
2023-03-24T01:48:15.547Z,16.10
2023-03-24T01:50:46.976Z,16.10
2023-03-24T01:53:15.439Z,16.10
2023-03-24T01:55:43.616Z,16.10
2023-03-24T01:58:10.785Z,16.10
2023-03-24T02:00:38.075Z,16.10
2023-03-24T02:03:10.335Z,16.10
2023-03-24T02:05:39.336Z,16.00
2023-03-24T02:08:28.320Z,16.00
2023-03-24T02:10:56.979Z,16.00
2023-03-24T02:13:23.836Z,16.10
2023-03-24T02:16:19.889Z,16.00
2023-03-24T02:19:06.081Z,16.00
2023-03-24T02:22:12.479Z,16.10
2023-03-24T02:24:48.264Z,16.10
2023-03-24T02:27:52.086Z,16.00
2023-03-24T02:30:26.941Z,16.10
2023-03-24T02:33:15.055Z,16.10
2023-03-24T02:36:17.110Z,16.10
2023-03-24T02:39:09.317Z,16.10
2023-03-24T02:41:46.944Z,16.00
2023-03-24T02:44:34.937Z,16.10
2023-03-24T02:47:08.057Z,16.00
2023-03-24T02:49:57.086Z,16.00
2023-03-24T02:52:51.473Z,16.10
2023-03-24T02:58:09.031Z,16.10
2023-03-24T03:00:44.968Z,16.10
2023-03-24T03:03:38.367Z,16.00
2023-03-24T03:06:40.352Z,16.20
2023-03-24T03:09:12.280Z,16.20
2023-03-24T03:11:42.266Z,16.20
2023-03-24T03:14:10.966Z,16.10
2023-03-24T03:16:45.440Z,16.10
2023-03-24T03:19:37.316Z,16.20
2023-03-24T03:22:08.398Z,16.10
2023-03-24T03:24:42.141Z,16.10
2023-03-24T03:27:17.185Z,16.10
2023-03-24T03:29:47.977Z,16.10
2023-03-24T03:32:19.878Z,16.10
2023-03-24T03:34:52.895Z,16.10
2023-03-24T03:37:34.726Z,16.10
2023-03-24T03:40:09.473Z,16.10
2023-03-24T03:42:36.683Z,16.10
2023-03-24T03:45:03.923Z,16.10
2023-03-24T03:47:32.639Z,16.20
2023-03-24T03:50:01.278Z,16.20
2023-03-24T03:52:28.210Z,16.20
2023-03-24T03:54:56.556Z,16.20
2023-03-24T03:57:23.756Z,16.20
2023-03-24T03:59:50.938Z,16.20
2023-03-24T04:02:44.992Z,16.20
2023-03-24T04:05:27.656Z,16.20
2023-03-24T04:08:10.205Z,16.20
2023-03-24T04:10:55.098Z,16.20
2023-03-24T04:13:48.276Z,16.30
2023-03-24T04:16:22.539Z,16.30
2023-03-24T04:19:12.350Z,16.30
2023-03-24T04:22:09.336Z,16.30
2023-03-24T04:24:40.263Z,16.20
2023-03-24T04:27:38.568Z,16.30
2023-03-24T04:30:16.887Z,16.30
2023-03-24T04:33:00.672Z,16.30
2023-03-24T04:35:34.436Z,16.20
2023-03-24T04:38:06.915Z,16.30
2023-03-24T04:40:36.749Z,16.30
2023-03-24T04:43:07.387Z,16.20
2023-03-24T04:45:37.390Z,16.30
2023-03-24T04:48:08.646Z,16.20
2023-03-24T04:50:45.482Z,16.20
2023-03-24T04:53:12.293Z,16.20
2023-03-24T04:55:57.377Z,16.30
2023-03-24T04:58:24.347Z,16.30
2023-03-24T05:00:52.280Z,16.30
2023-03-24T05:03:19.655Z,16.30
2023-03-24T05:05:49.075Z,16.40
2023-03-24T05:08:17.626Z,16.40
2023-03-24T05:10:45.137Z,16.40
2023-03-24T05:13:12.449Z,16.50
2023-03-24T05:15:39.388Z,16.50
2023-03-24T05:18:06.825Z,16.60
2023-03-24T05:20:33.857Z,16.60
2023-03-24T05:23:02.026Z,16.60
2023-03-24T05:25:28.928Z,16.50
2023-03-24T05:27:55.976Z,16.40
2023-03-24T05:30:23.678Z,16.50
2023-03-24T05:32:50.864Z,16.40
2023-03-24T05:35:17.743Z,16.50
2023-03-24T05:37:44.582Z,16.50
2023-03-24T05:40:12.309Z,16.40
2023-03-24T05:42:39.092Z,16.50
2023-03-24T05:45:06.716Z,16.50
2023-03-24T05:47:33.811Z,16.60
2023-03-24T05:50:00.872Z,16.60
2023-03-24T05:52:28.916Z,16.60
2023-03-24T05:54:56.008Z,16.60
2023-03-24T05:57:23.160Z,16.60
2023-03-24T05:59:52.686Z,16.50
2023-03-24T06:02:20.839Z,16.50
2023-03-24T06:04:49.422Z,16.50
2023-03-24T06:07:16.600Z,16.50
2023-03-24T06:09:46.965Z,16.40
2023-03-24T06:12:16.242Z,16.40
2023-03-24T06:14:43.964Z,16.40
2023-03-24T06:17:15.172Z,16.30
2023-03-24T06:19:49.779Z,16.40
2023-03-24T06:22:20.640Z,16.30
2023-03-24T06:24:48.005Z,16.20
2023-03-24T06:27:14.730Z,16.20
2023-03-24T06:29:44.787Z,16.30
2023-03-24T06:32:11.701Z,16.20
2023-03-24T06:34:40.546Z,16.20
2023-03-24T06:37:08.032Z,16.20
2023-03-24T06:39:35.074Z,16.20
2023-03-24T06:42:02.031Z,16.30
2023-03-24T06:44:28.905Z,16.30
2023-03-24T06:46:55.855Z,16.30
2023-03-24T06:49:22.900Z,16.30
2023-03-24T06:51:50.045Z,16.20
2023-03-24T06:54:16.963Z,16.20
2023-03-24T06:56:44.091Z,16.20
2023-03-24T06:59:11.019Z,16.20
2023-03-24T07:01:38.636Z,16.30
2023-03-24T07:04:06.252Z,16.30
2023-03-24T07:06:40.181Z,16.40
2023-03-24T07:09:13.867Z,16.40
2023-03-24T07:11:41.455Z,16.40
2023-03-24T07:14:09.423Z,16.50
2023-03-24T07:16:36.330Z,16.50
2023-03-24T07:19:03.970Z,16.50
2023-03-24T07:21:30.873Z,16.50
2023-03-24T07:23:57.925Z,16.50
2023-03-24T07:26:24.769Z,16.50
2023-03-24T07:28:51.671Z,16.50
2023-03-24T07:31:18.591Z,16.60
2023-03-24T07:33:45.401Z,16.50
2023-03-24T07:36:12.228Z,16.50
2023-03-24T07:38:39.074Z,16.50
2023-03-24T07:41:06.229Z,16.50
2023-03-24T07:43:33.107Z,16.40
2023-03-24T07:45:59.932Z,16.40
2023-03-24T07:48:27.225Z,16.40
2023-03-24T07:50:54.292Z,16.30
2023-03-24T07:53:21.295Z,16.30
2023-03-24T07:55:48.679Z,16.30
2023-03-24T07:58:15.915Z,16.30
2023-03-24T08:00:43.283Z,16.20
2023-03-24T08:03:14.508Z,16.20
2023-03-24T08:05:43.541Z,16.10
2023-03-24T08:08:10.657Z,16.10
2023-03-24T08:10:37.568Z,16.10
2023-03-24T08:13:04.512Z,16.00
2023-03-24T08:15:31.815Z,15.90
2023-03-24T08:17:58.696Z,15.90
2023-03-24T08:20:27.389Z,15.90
2023-03-24T08:22:54.652Z,15.90
2023-03-24T08:25:25.306Z,15.90
2023-03-24T08:27:52.227Z,15.80
2023-03-24T08:30:22.173Z,15.80
2023-03-24T08:32:54.267Z,15.80
2023-03-24T08:35:27.497Z,15.80
2023-03-24T08:37:54.372Z,15.80
2023-03-24T08:40:24.465Z,15.90
2023-03-24T08:42:56.886Z,15.90
2023-03-24T08:45:27.412Z,15.90
2023-03-24T08:47:55.538Z,15.90
2023-03-24T08:50:25.938Z,15.90
2023-03-24T08:52:53.520Z,15.90
2023-03-24T08:55:21.985Z,15.90
2023-03-24T08:57:49.172Z,15.90
2023-03-24T09:00:18.468Z,16.00
2023-03-24T09:02:50.820Z,16.00
2023-03-24T09:05:22.800Z,16.00
2023-03-24T09:07:54.074Z,16.00
2023-03-24T09:10:22.634Z,16.00
2023-03-24T09:12:50.531Z,16.00
2023-03-24T09:15:17.679Z,16.10
2023-03-24T09:17:44.809Z,16.10
2023-03-24T09:20:14.529Z,16.20
2023-03-24T09:22:44.330Z,16.20
2023-03-24T09:25:13.789Z,16.30
2023-03-24T09:27:40.797Z,16.40
2023-03-24T09:30:09.542Z,16.50
2023-03-24T09:32:36.998Z,16.50
2023-03-24T09:35:04.718Z,16.60
2023-03-24T09:37:32.883Z,16.60
2023-03-24T09:40:01.623Z,16.60
2023-03-24T09:42:34.032Z,16.60
2023-03-24T09:45:08.284Z,16.60
2023-03-24T09:47:43.025Z,16.70
2023-03-24T09:50:24.521Z,16.60
2023-03-24T09:52:57.086Z,16.70
2023-03-24T09:55:26.968Z,16.70
2023-03-24T09:57:59.507Z,16.80
2023-03-24T10:00:32.101Z,16.80
2023-03-24T10:03:23.137Z,16.90
2023-03-24T10:06:10.647Z,16.90
2023-03-24T10:09:08.551Z,16.90
2023-03-24T10:11:44.972Z,16.90
2023-03-24T10:14:33.294Z,17.00
2023-03-24T10:17:08.978Z,17.00
2023-03-24T10:20:15.950Z,17.10
2023-03-24T10:23:08.606Z,17.10
2023-03-24T10:25:50.684Z,17.10
2023-03-24T10:28:31.737Z,17.20
2023-03-24T10:31:03.091Z,17.20
2023-03-24T10:33:30.806Z,17.20
2023-03-24T10:36:08.460Z,17.30
2023-03-24T10:38:36.033Z,17.40
2023-03-24T10:41:03.282Z,17.40
2023-03-24T10:43:32.372Z,17.50
2023-03-24T10:46:02.173Z,17.50
2023-03-24T10:48:43.037Z,17.50
2023-03-24T10:51:23.367Z,17.60
2023-03-24T10:53:52.184Z,17.60
2023-03-24T10:56:39.476Z,17.70
2023-03-24T10:59:28.848Z,17.60
2023-03-24T11:02:10.840Z,17.70
2023-03-24T11:04:39.809Z,17.80
2023-03-24T11:07:16.217Z,17.80
2023-03-24T11:09:47.955Z,17.80
2023-03-24T11:12:23.542Z,17.80
2023-03-24T11:14:50.373Z,17.80
2023-03-24T11:17:19.987Z,17.80
2023-03-24T11:19:54.839Z,17.80
2023-03-24T11:22:22.173Z,17.80
2023-03-24T11:24:56.327Z,17.80
2023-03-24T11:27:23.435Z,17.80
2023-03-24T11:29:56.936Z,17.80
2023-03-24T11:32:29.947Z,17.60
2023-03-24T11:35:18.594Z,17.80
2023-03-24T11:37:47.346Z,17.80
2023-03-24T11:40:15.435Z,17.70
2023-03-24T11:42:55.846Z,17.70
2023-03-24T11:45:30.777Z,17.70
2023-03-24T11:47:59.726Z,17.70
2023-03-24T11:50:36.307Z,17.80
2023-03-24T11:53:23.828Z,18.00
2023-03-24T11:56:06.268Z,17.80
2023-03-24T11:58:38.741Z,17.80
2023-03-24T12:01:16.890Z,17.90
2023-03-24T12:04:11.945Z,17.90
2023-03-24T12:07:01.286Z,17.90
2023-03-24T12:09:36.098Z,17.90
2023-03-24T12:12:40.630Z,17.90
2023-03-24T12:15:29.038Z,17.90
2023-03-24T12:18:58.149Z,17.90
2023-03-24T12:21:51.753Z,17.90
2023-03-24T12:24:28.104Z,18.00
2023-03-24T12:27:00.035Z,18.00
2023-03-24T12:29:45.003Z,18.00
2023-03-24T12:32:34.783Z,18.10
2023-03-24T12:35:31.421Z,18.00
2023-03-24T12:38:14.521Z,17.90
2023-03-24T12:41:02.183Z,18.00
2023-03-24T12:43:50.432Z,19.40
2023-03-24T12:47:14.736Z,18.00
2023-03-24T12:50:02.508Z,18.00
2023-03-24T12:52:29.440Z,18.00
2023-03-24T12:55:05.112Z,18.00
2023-03-24T12:57:42.610Z,18.00
2023-03-24T13:00:17.421Z,18.10
2023-03-24T13:02:58.095Z,18.10
2023-03-24T13:05:32.082Z,18.20
2023-03-24T13:08:16.502Z,18.10
2023-03-24T13:10:43.827Z,18.10
2023-03-24T13:13:32.883Z,18.20
2023-03-24T13:16:21.141Z,18.10
2023-03-24T13:18:53.117Z,18.10
2023-03-24T13:21:23.474Z,18.10
2023-03-24T13:23:57.440Z,18.00
2023-03-24T13:26:38.448Z,18.00
2023-03-24T13:29:14.615Z,17.90
2023-03-24T13:32:11.654Z,17.90
2023-03-24T13:34:52.150Z,17.90
2023-03-24T13:37:24.540Z,17.90
2023-03-24T13:40:00.900Z,17.90
2023-03-24T13:42:32.061Z,18.00
2023-03-24T13:45:01.656Z,18.00
2023-03-24T13:47:57.878Z,18.00
2023-03-24T13:50:25.461Z,18.00
2023-03-24T13:52:53.018Z,18.00
2023-03-24T13:55:28.284Z,17.90
2023-03-24T13:58:19.250Z,17.90
2023-03-24T14:01:11.356Z,17.90
2023-03-24T14:03:47.469Z,17.90
2023-03-24T14:06:18.452Z,17.80
2023-03-24T14:08:52.112Z,17.80
2023-03-24T14:11:31.594Z,17.80
2023-03-24T14:14:21.452Z,17.80
2023-03-24T14:17:03.590Z,17.80
2023-03-24T14:19:55.409Z,17.80
2023-03-24T14:22:26.416Z,17.80
2023-03-24T14:25:16.942Z,17.80
2023-03-24T14:27:51.266Z,17.70
2023-03-24T14:30:23.255Z,17.60
2023-03-24T14:32:56.764Z,17.30
2023-03-24T14:35:34.699Z,17.00
2023-03-24T14:38:14.265Z,16.60
2023-03-24T14:40:44.408Z,16.20
2023-03-24T14:43:22.364Z,16.90
2023-03-24T14:45:58.731Z,15.70
2023-03-24T14:48:44.016Z,15.90
2023-03-24T14:51:36.384Z,15.50
2023-03-24T14:54:06.576Z,15.50
2023-03-24T14:56:39.791Z,15.30
2023-03-24T14:59:21.954Z,15.30
2023-03-24T15:01:52.545Z,15.30
2023-03-24T15:04:20.603Z,15.30
2023-03-24T15:06:48.652Z,15.20
2023-03-24T15:09:17.577Z,15.20
2023-03-24T15:11:46.482Z,15.10
2023-03-24T15:14:20.552Z,15.10
2023-03-24T15:16:54.094Z,15.10
2023-03-24T15:19:26.170Z,15.10
2023-03-24T15:21:59.112Z,15.10
2023-03-24T15:24:37.114Z,15.10
2023-03-24T15:27:10.119Z,15.20
2023-03-24T15:29:39.803Z,15.10
2023-03-24T15:32:11.942Z,15.20
2023-03-24T15:34:46.399Z,15.20
2023-03-24T15:37:50.162Z,15.30
2023-03-24T15:40:30.521Z,15.30
2023-03-24T15:43:16.468Z,15.20
2023-03-24T15:46:01.112Z,15.30
2023-03-24T15:48:37.887Z,15.40
2023-03-24T15:51:07.965Z,15.40
2023-03-24T15:53:45.045Z,15.40
2023-03-24T15:56:29.380Z,15.40
2023-03-24T15:59:07.098Z,15.40
2023-03-24T16:01:36.624Z,15.40
2023-03-24T16:04:10.968Z,15.40
2023-03-24T16:06:43.044Z,15.30
2023-03-24T16:09:14.341Z,15.20
2023-03-24T16:11:42.232Z,15.30
2023-03-24T16:14:30.013Z,15.20
2023-03-24T16:17:00.044Z,15.20
2023-03-24T16:19:27.495Z,15.20
2023-03-24T16:21:54.970Z,15.20
2023-03-24T16:24:22.152Z,15.20
2023-03-24T16:26:50.195Z,15.20
2023-03-24T16:29:19.856Z,15.20
2023-03-24T16:31:51.845Z,15.10
2023-03-24T16:34:20.745Z,15.00
2023-03-24T16:36:49.510Z,15.00
2023-03-24T16:39:21.777Z,14.90
2023-03-24T16:41:48.901Z,14.90
2023-03-24T16:44:17.481Z,15.00
2023-03-24T16:46:46.858Z,14.90
2023-03-24T16:49:16.668Z,14.90
2023-03-24T16:51:44.106Z,14.90
2023-03-24T16:54:10.931Z,14.90
2023-03-24T16:56:38.446Z,14.90
2023-03-24T16:59:05.861Z,14.90
2023-03-24T17:01:38.891Z,14.80
2023-03-24T17:04:16.429Z,14.90
2023-03-24T17:06:50.915Z,14.80
2023-03-24T17:09:17.805Z,14.90
2023-03-24T17:11:50.956Z,14.90
2023-03-24T17:14:18.049Z,15.00
2023-03-24T17:16:46.854Z,15.00
2023-03-24T17:19:16.538Z,15.00
2023-03-24T17:21:54.233Z,15.10
2023-03-24T17:24:21.530Z,16.40
2023-03-24T17:26:48.389Z,15.10
2023-03-24T17:29:15.486Z,15.10
2023-03-24T17:31:45.426Z,15.20
2023-03-24T17:36:43.774Z,15.30
2023-03-24T17:39:16.069Z,15.20
2023-03-24T17:41:42.853Z,15.20
2023-03-24T17:44:09.809Z,15.30
2023-03-24T17:46:36.932Z,15.30
2023-03-24T17:49:04.103Z,15.30
2023-03-24T17:51:31.298Z,15.20
2023-03-24T17:53:58.413Z,15.20
2023-03-24T17:56:25.441Z,15.20
2023-03-24T17:58:54.839Z,15.20
2023-03-24T18:01:22.222Z,15.20
2023-03-24T18:03:49.804Z,15.10
2023-03-24T18:06:17.094Z,15.20
2023-03-24T18:08:44.084Z,15.30
2023-03-24T18:11:14.565Z,15.30
2023-03-24T18:13:44.394Z,15.20
2023-03-24T18:16:20.545Z,15.20
2023-03-24T18:18:49.660Z,15.10
2023-03-24T18:21:16.614Z,15.20
2023-03-24T18:23:43.956Z,15.20
2023-03-24T18:26:11.224Z,15.10
2023-03-24T18:28:38.966Z,15.10
2023-03-24T18:31:22.998Z,15.40
2023-03-24T18:33:51.251Z,15.00
2023-03-24T18:36:21.355Z,15.10
2023-03-24T18:38:49.391Z,15.00
2023-03-24T18:41:18.442Z,15.00
2023-03-24T18:43:47.907Z,15.00
2023-03-24T18:46:16.263Z,14.80
2023-03-24T18:48:43.594Z,14.90
2023-03-24T18:51:11.312Z,14.80
2023-03-24T18:53:38.326Z,14.80
2023-03-24T18:56:06.879Z,14.80
2023-03-24T18:58:34.595Z,14.80
2023-03-24T19:01:09.656Z,14.80
2023-03-24T19:03:38.486Z,14.80
2023-03-24T19:06:07.923Z,14.70
2023-03-24T19:08:37.883Z,14.70
2023-03-24T19:11:05.426Z,14.70
2023-03-24T19:13:32.745Z,14.70
2023-03-24T19:16:00.273Z,14.70
2023-03-24T19:18:27.307Z,14.80
2023-03-24T19:20:56.062Z,14.70
2023-03-24T19:23:26.121Z,14.70
2023-03-24T19:25:56.311Z,14.80
2023-03-24T19:28:26.628Z,14.70
2023-03-24T19:30:53.542Z,14.70
2023-03-24T19:33:20.549Z,14.60
2023-03-24T19:35:48.661Z,14.60
2023-03-24T19:38:18.578Z,14.50
2023-03-24T19:40:45.601Z,14.40
2023-03-24T19:43:13.040Z,14.40
2023-03-24T19:45:42.894Z,14.50
2023-03-24T19:48:10.957Z,14.50
2023-03-24T19:50:37.885Z,14.40
2023-03-24T19:53:05.056Z,14.30
2023-03-24T19:55:32.054Z,14.40
2023-03-24T19:57:59.617Z,14.40
2023-03-24T20:00:26.630Z,14.40
2023-03-24T20:02:53.694Z,14.30
2023-03-24T20:05:21.090Z,14.40
2023-03-24T20:07:47.960Z,14.40
2023-03-24T20:10:14.849Z,14.40
2023-03-24T20:12:41.723Z,14.40
2023-03-24T20:15:08.852Z,14.40
2023-03-24T20:17:39.450Z,14.30
2023-03-24T20:20:08.263Z,14.30
2023-03-24T20:22:35.617Z,14.30
2023-03-24T20:25:03.721Z,14.30
2023-03-24T20:27:31.325Z,14.30
2023-03-24T20:29:58.179Z,14.10
2023-03-24T20:32:24.921Z,14.20
2023-03-24T20:34:52.274Z,14.10
2023-03-24T20:37:19.068Z,14.10
2023-03-24T20:39:45.992Z,14.10
2023-03-24T20:42:13.080Z,14.00
2023-03-24T20:44:39.810Z,14.00
2023-03-24T20:47:06.722Z,14.10
2023-03-24T20:49:33.583Z,14.10
2023-03-24T20:52:00.477Z,14.10
2023-03-24T20:54:27.285Z,14.00
2023-03-24T20:56:54.770Z,14.00
2023-03-24T20:59:21.833Z,14.00
2023-03-24T21:01:48.994Z,14.00
2023-03-24T21:04:18.276Z,14.00
2023-03-24T21:06:45.817Z,12.20
2023-03-24T21:09:13.228Z,14.00
2023-03-24T21:11:40.056Z,14.10
2023-03-24T21:14:06.882Z,14.00
2023-03-24T21:16:34.221Z,14.00
2023-03-24T21:19:03.797Z,14.00
2023-03-24T21:21:32.428Z,14.00
2023-03-24T21:24:00.522Z,14.00
2023-03-24T21:26:27.629Z,14.00
2023-03-24T21:28:54.471Z,14.10
2023-03-24T21:31:24.316Z,14.10
2023-03-24T21:33:52.308Z,14.10
2023-03-24T21:36:20.096Z,14.10
2023-03-24T21:38:49.958Z,14.10
2023-03-24T21:41:18.106Z,14.00
2023-03-24T21:43:51.375Z,14.10
2023-03-24T21:46:21.953Z,14.10
2023-03-24T21:48:55.728Z,14.10
2023-03-24T21:51:25.781Z,14.00
2023-03-24T21:53:59.399Z,13.90
2023-03-24T21:56:26.177Z,13.90
2023-03-24T21:58:54.741Z,13.90
2023-03-24T22:01:22.416Z,13.80
2023-03-24T22:03:50.760Z,13.80
2023-03-24T22:06:17.664Z,13.90
2023-03-24T22:08:48.813Z,14.00
2023-03-24T22:11:18.536Z,13.90
2023-03-24T22:13:46.632Z,13.90
2023-03-24T22:16:14.332Z,13.80
2023-03-24T22:18:41.563Z,13.80
2023-03-24T22:21:10.006Z,13.90
2023-03-24T22:23:39.597Z,13.80
2023-03-24T22:26:12.855Z,13.80
2023-03-24T22:28:40.368Z,13.80
2023-03-24T22:31:09.732Z,13.80
2023-03-24T22:33:37.257Z,13.80
2023-03-24T22:36:05.090Z,13.70
2023-03-24T22:38:32.443Z,13.80
2023-03-24T22:41:01.528Z,13.70
2023-03-24T22:43:29.481Z,13.70
2023-03-24T22:45:56.690Z,13.70
2023-03-24T22:48:24.025Z,13.80
2023-03-24T22:50:51.453Z,13.90
2023-03-24T22:53:18.436Z,13.90
2023-03-24T22:55:45.400Z,13.90
2023-03-24T22:58:13.953Z,13.90
2023-03-24T23:00:42.288Z,14.10
2023-03-24T23:03:09.776Z,14.00
2023-03-24T23:05:41.349Z,14.00
2023-03-24T23:08:09.652Z,14.00
2023-03-24T23:10:37.457Z,14.00
2023-03-24T23:13:04.523Z,14.00
2023-03-24T23:15:32.173Z,13.90
2023-03-24T23:17:59.722Z,13.90
2023-03-24T23:20:28.178Z,13.90
2023-03-24T23:22:55.589Z,13.90
2023-03-24T23:25:23.211Z,13.90
2023-03-24T23:27:50.464Z,14.00
2023-03-24T23:30:18.217Z,14.00
2023-03-24T23:32:46.780Z,13.80
2023-03-24T23:35:14.528Z,13.90
2023-03-24T23:37:41.727Z,13.80
2023-03-24T23:40:15.557Z,13.80
2023-03-24T23:42:46.271Z,13.80
2023-03-24T23:45:15.877Z,13.90
2023-03-24T23:47:43.754Z,13.80
2023-03-24T23:50:11.432Z,13.80
2023-03-24T23:52:41.313Z,13.80
2023-03-24T23:55:10.387Z,13.90
2023-03-24T23:57:41.615Z,13.80
